Time;durP1;ratioP1;P1;durP2;ratioP2;P2;SDS_P1;SDS_P2;PMS_P1;PMS_P2;Temp;Humidity;BMP_temperature;BMP_pressure;BME280_temperature;BME280_humidity;BME280_pressure;Samples;Min_cycle;Max_cycle;Signal;HPM_P1;HPM_P2
2021/03/07 00:01:32;;;;;;;3.10;0.40;;;-1.20;99.90;;;;;;5015179;28;20469;-72
2021/03/07 00:03:58;;;;;;;3.65;1.77;;;-1.20;99.90;;;;;;5066640;22;20054;-72
2021/03/07 00:06:24;;;;;;;3.38;0.65;;;-1.20;99.90;;;;;;5091881;28;20404;-73
2021/03/07 00:08:49;;;;;;;4.22;0.73;;;-1.10;99.90;;;;;;5075015;28;20021;-72
2021/03/07 00:11:15;;;;;;;6.38;0.47;;;-1.20;99.90;;;;;;5074952;28;20017;-73
2021/03/07 00:13:40;;;;;;;4.03;0.40;;;-1.10;99.90;;;;;;5073210;28;20078;-73
2021/03/07 00:16:06;;;;;;;1.80;0.30;;;-1.20;99.90;;;;;;5077198;28;20424;-74
2021/03/07 00:18:31;;;;;;;4.07;0.25;;;-1.20;99.90;;;;;;5077543;28;20137;-73
2021/03/07 00:20:57;;;;;;;5.82;0.60;;;-1.20;99.90;;;;;;5074638;28;20048;-73
2021/03/07 00:23:23;;;;;;;2.08;0.50;;;-1.30;99.90;;;;;;5074663;28;20450;-73
2021/03/07 00:25:48;;;;;;;3.10;0.88;;;-1.30;99.90;;;;;;5086319;28;20047;-73
2021/03/07 00:28:14;;;;;;;1.65;0.30;;;-1.30;99.90;;;;;;5077385;28;20021;-73
2021/03/07 00:30:39;;;;;;;2.50;0.52;;;-1.30;99.90;;;;;;5093962;28;20039;-73
2021/03/07 00:33:05;;;;;;;5.93;0.25;;;-1.40;99.90;;;;;;5089768;28;20472;-73
2021/03/07 00:35:30;;;;;;;2.17;0.30;;;-1.40;99.90;;;;;;5074461;28;20501;-73
2021/03/07 00:37:56;;;;;;;5.72;0.32;;;0.30;99.90;;;;;;5082725;28;20028;-73
2021/03/07 00:40:21;;;;;;;3.00;0.63;;;-1.40;99.90;;;;;;5075059;28;20099;-73
2021/03/07 00:42:48;;;;;;;1.48;0.52;;;-1.40;99.90;;;;;;5074737;28;20430;-74
2021/03/07 00:45:16;;;;;;;2.83;0.43;;;-1.40;99.90;;;;;;5076209;28;20094;-73
2021/03/07 00:47:43;;;;;;;2.17;0.50;;;-1.40;99.90;;;;;;5087475;28;20386;-73
2021/03/07 00:50:11;;;;;;;2.20;0.38;;;-1.40;99.90;;;;;;5093576;28;20080;-74
2021/03/07 00:52:37;;;;;;;2.30;0.47;;;-1.40;99.90;;;;;;5094536;28;20106;-73
2021/03/07 00:55:04;;;;;;;1.25;0.32;;;-1.40;99.90;;;;;;5094748;28;20127;-73
2021/03/07 00:57:29;;;;;;;5.05;0.77;;;-1.40;99.90;;;;;;5082041;28;20506;-74
2021/03/07 00:59:55;;;;;;;4.13;0.85;;;-1.50;99.90;;;;;;5074645;28;20012;-73
2021/03/07 01:02:20;;;;;;;2.20;1.00;;;-1.50;99.90;;;;;;5074744;28;20070;-73
2021/03/07 01:04:46;;;;;;;5.13;0.75;;;-1.60;99.90;;;;;;5074676;28;20060;-73
2021/03/07 01:07:11;;;;;;;6.53;1.08;;;-1.60;99.90;;;;;;5023389;22;20096;-73
2021/03/07 01:09:39;;;;;;;3.97;0.88;;;-1.60;99.90;;;;;;4993450;28;20031;-74
2021/03/07 01:12:05;;;;;;;4.35;0.68;;;-1.60;99.90;;;;;;4994871;28;20030;-74
2021/03/07 01:14:32;;;;;;;4.50;1.00;;;-1.60;99.90;;;;;;4995451;28;20424;-73
2021/03/07 01:16:57;;;;;;;3.38;0.80;;;-1.20;99.90;;;;;;4996894;28;20037;-74
2021/03/07 01:19:32;;;;;;;3.28;1.30;;;-1.70;99.90;;;;;;4998270;28;20094;-73
2021/03/07 01:21:57;;;;;;;5.90;1.10;;;-1.60;99.90;;;;;;4995067;28;20101;-73
2021/03/07 01:24:23;;;;;;;4.72;1.10;;;-1.70;99.90;;;;;;5000002;28;20452;-73
2021/03/07 01:26:48;;;;;;;5.47;0.98;;;-1.70;99.90;;;;;;4998057;28;20477;-73
2021/03/07 01:29:14;;;;;;;4.45;1.10;;;-1.70;99.90;;;;;;4999034;28;20454;-73
2021/03/07 01:31:39;;;;;;;3.50;1.05;;;-1.70;99.90;;;;;;4998671;28;20039;-72
2021/03/07 01:34:05;;;;;;;2.90;1.10;;;-1.70;99.90;;;;;;4998933;28;20062;-73
2021/03/07 01:36:30;;;;;;;6.35;1.65;;;-1.70;99.90;;;;;;4996892;28;20572;-73
2021/03/07 01:38:59;;;;;;;4.93;1.70;;;-1.70;99.90;;;;;;4997108;28;20026;-72
2021/03/07 01:41:25;;;;;;;4.68;1.67;;;-1.70;99.90;;;;;;5067021;22;20109;-72
2021/03/07 01:43:51;;;;;;;5.25;2.00;;;-1.70;99.90;;;;;;5077485;28;20032;-72
2021/03/07 01:46:17;;;;;;;4.93;1.58;;;-1.70;99.90;;;;;;5059857;28;20043;-73
2021/03/07 01:48:43;;;;;;;5.88;1.63;;;-1.70;99.90;;;;;;5074681;28;20024;-73
2021/03/07 01:51:09;;;;;;;6.07;1.75;;;-1.80;99.90;;;;;;5076077;28;20024;-72
2021/03/07 01:53:35;;;;;;;5.82;1.90;;;-1.80;99.90;;;;;;5076301;28;20482;-74
2021/03/07 01:56:04;;;;;;;3.17;1.58;;;-1.80;99.90;;;;;;5076563;28;20024;-73
2021/03/07 01:58:32;;;;;;;;;;;-1.80;99.90;;;;;;5073903;22;20510;-72
2021/03/07 02:00:57;;;;;;;3.05;1.15;;;-1.80;99.90;;;;;;5019291;28;19909;-73
2021/03/07 02:03:24;;;;;;;6.07;2.00;;;-1.80;99.90;;;;;;5037402;28;20025;-75
2021/03/07 02:05:50;;;;;;;7.15;1.65;;;-1.80;99.90;;;;;;5037250;28;20026;-74
2021/03/07 02:08:16;;;;;;;7.50;1.45;;;-1.80;99.90;;;;;;5003335;28;20074;-74
2021/03/07 02:11:00;;;;;;;7.93;1.52;;;-1.80;99.90;;;;;;5016861;28;20072;-72
2021/03/07 02:13:36;;;;;;;6.15;1.80;;;-1.80;99.90;;;;;;4999958;28;20033;-74
2021/03/07 02:16:07;;;;;;;6.05;1.33;;;-1.80;99.90;;;;;;5036439;28;20029;-73
2021/03/07 02:18:37;;;;;;;4.72;1.40;;;-1.80;99.90;;;;;;5040833;22;20037;-73
2021/03/07 02:21:10;;;;;;;6.70;1.38;;;-1.90;99.90;;;;;;5074897;28;20027;-72
2021/03/07 02:24:08;;;;;;;5.57;1.40;;;-1.90;99.90;;;;;;5077146;28;20036;-73
2021/03/07 02:26:39;;;;;;;3.15;1.20;;;-1.90;99.90;;;;;;5062599;28;20040;-72
2021/03/07 02:29:10;;;;;;;7.03;1.52;;;-1.90;99.90;;;;;;5071805;28;20078;-74
2021/03/07 02:31:45;;;;;;;5.30;1.52;;;-2.00;99.90;;;;;;5063367;28;20055;-73
2021/03/07 02:34:31;;;;;;;7.85;1.58;;;-2.10;99.90;;;;;;5075854;28;20530;-74
2021/03/07 02:37:00;;;;;;;4.55;1.50;;;-2.10;99.90;;;;;;5067174;28;20021;-73
2021/03/07 02:39:30;;;;;;;3.72;1.10;;;-2.10;99.90;;;;;;5056623;28;20040;-73
2021/03/07 02:42:01;;;;;;;4.78;1.38;;;-2.10;99.90;;;;;;5082459;22;20049;-72
2021/03/07 02:44:30;;;;;;;4.82;1.48;;;-2.10;99.90;;;;;;5082763;22;20042;-73
2021/03/07 02:46:57;;;;;;;5.25;1.38;;;-2.10;99.90;;;;;;5035592;28;20469;-73
2021/03/07 02:49:26;;;;;;;5.70;1.20;;;-2.10;99.90;;;;;;5035499;28;20106;-73
2021/03/07 02:51:52;;;;;;;5.93;1.50;;;-2.10;99.90;;;;;;5034014;28;20481;-73
2021/03/07 02:54:20;;;;;;;2.92;1.10;;;-2.20;99.90;;;;;;5035371;28;20029;-73
2021/03/07 02:56:49;;;;;;;3.63;1.17;;;-2.20;99.90;;;;;;5035330;28;20062;-73
2021/03/07 02:59:16;;;;;;;4.18;1.40;;;-2.30;99.90;;;;;;5035822;28;20057;-73
2021/03/07 03:01:43;;;;;;;4.32;1.50;;;-2.40;99.90;;;;;;5034240;28;20013;-73
2021/03/07 03:04:09;;;;;;;4.05;1.42;;;-2.40;99.90;;;;;;5035482;28;20026;-73
2021/03/07 03:06:41;;;;;;;5.40;1.58;;;-2.40;99.90;;;;;;5035255;28;20531;-73
2021/03/07 03:09:10;;;;;;;5.57;1.42;;;-2.30;99.90;;;;;;5035263;28;20045;-73
2021/03/07 03:11:38;;;;;;;5.85;1.90;;;-2.30;99.90;;;;;;5035212;28;20480;-73
2021/03/07 03:14:08;;;;;;;4.43;1.40;;;-2.20;99.90;;;;;;5031975;28;20104;-73
2021/03/07 03:16:34;;;;;;;4.88;1.35;;;-2.20;99.90;;;;;;5032416;28;20025;-73
2021/03/07 03:19:04;;;;;;;6.60;1.58;;;-2.20;99.90;;;;;;5034888;28;20082;-73
2021/03/07 03:21:30;;;;;;;6.18;2.00;;;-2.20;99.90;;;;;;5034596;28;20048;-73
2021/03/07 03:23:59;;;;;;;5.70;1.83;;;-2.30;99.90;;;;;;5033467;28;20026;-72
2021/03/07 03:26:25;;;;;;;6.50;1.23;;;-2.30;99.90;;;;;;5035230;28;20037;-73
2021/03/07 03:28:51;;;;;;;3.83;1.77;;;-2.40;99.90;;;;;;5034859;28;20078;-73
2021/03/07 03:31:19;;;;;;;5.38;2.00;;;-2.40;99.90;;;;;;5035358;28;20104;-72
2021/03/07 03:33:44;;;;;;;5.32;1.58;;;-2.40;99.90;;;;;;5035607;28;20033;-73
2021/03/07 03:36:10;;;;;;;6.10;1.83;;;-2.40;99.90;;;;;;5034342;28;20025;-73
2021/03/07 03:38:42;;;;;;;5.57;1.80;;;-2.30;99.90;;;;;;5034086;28;20109;-73
2021/03/07 03:41:09;;;;;;;2.92;1.20;;;-2.30;99.90;;;;;;5033768;28;20021;-73
2021/03/07 03:43:36;;;;;;;3.58;1.88;;;-2.30;99.90;;;;;;5035344;28;20427;-73
2021/03/07 03:46:04;;;;;;;8.18;2.05;;;-2.30;99.90;;;;;;5035647;28;20117;-73
2021/03/07 03:48:34;;;;;;;10.30;2.38;;;-2.20;99.90;;;;;;5035159;28;20037;-73
2021/03/07 03:51:02;;;;;;;6.70;2.10;;;-2.20;99.90;;;;;;5035046;28;20021;-73
2021/03/07 03:53:29;;;;;;;9.17;2.67;;;-2.10;99.90;;;;;;5033452;28;20057;-72
2021/03/07 03:55:58;;;;;;;4.72;1.85;;;-1.90;99.90;;;;;;5033456;28;20040;-72
2021/03/07 03:58:27;;;;;;;7.00;2.10;;;-1.80;99.90;;;;;;5033497;28;20068;-73
2021/03/07 04:00:54;;;;;;;;;;;-1.80;99.90;;;;;;5056434;22;20041;-73
2021/03/07 04:03:20;;;;;;;4.50;1.60;;;-1.80;99.90;;;;;;5070193;22;19936;-72
2021/03/07 04:05:48;;;;;;;7.07;1.90;;;-1.70;99.90;;;;;;5054856;28;20036;-72
2021/03/07 04:08:19;;;;;;;8.52;1.73;;;-1.70;99.90;;;;;;5054430;28;20029;-73
2021/03/07 04:10:46;;;;;;;5.70;1.92;;;-1.70;99.90;;;;;;5059699;22;20045;-72
2021/03/07 04:13:20;;;;;;;7.30;2.10;;;-1.60;99.90;;;;;;5034670;28;20025;-73
2021/03/07 04:18:17;;;;;;;6.22;2.20;;;-1.50;99.90;;;;;;5052708;28;20053;-72
2021/03/07 04:20:43;;;;;;;;;;;-1.60;99.90;;;;;;5036774;28;20079;-73
2021/03/07 04:23:09;;;;;;;5.90;1.95;;;-1.60;99.90;;;;;;5054033;28;19919;-73
2021/03/07 04:25:36;;;;;;;6.00;2.05;;;-1.60;99.90;;;;;;5053844;28;20036;-72
2021/03/07 04:28:04;;;;;;;7.82;2.13;;;-1.50;99.90;;;;;;5102579;23;20052;-72
2021/03/07 04:30:31;;;;;;;15.70;2.40;;;-1.50;99.90;;;;;;5094157;28;20054;-72
2021/03/07 04:32:57;;;;;;;6.22;2.05;;;-1.50;99.90;;;;;;5094404;28;20133;-72
2021/03/07 04:35:23;;;;;;;7.00;2.03;;;-1.50;99.90;;;;;;5094040;28;20062;-72
2021/03/07 04:37:49;;;;;;;8.70;2.58;;;-1.40;99.90;;;;;;5098726;22;20048;-73
2021/03/07 04:40:15;;;;;;;8.25;3.10;;;-1.40;99.90;;;;;;5074459;28;20490;-72
2021/03/07 04:42:42;;;;;;;6.53;2.33;;;-1.40;99.90;;;;;;5072650;28;20088;-72
2021/03/07 04:45:12;;;;;;;8.50;2.38;;;-1.30;99.90;;;;;;5074034;28;20055;-72
2021/03/07 04:47:37;;;;;;;5.88;2.45;;;-1.20;99.90;;;;;;5070203;28;20032;-73
2021/03/07 04:50:04;;;;;;;9.35;2.00;;;-1.20;99.90;;;;;;5054097;28;20043;-73
2021/03/07 04:52:29;;;;;;;6.43;2.10;;;-1.20;99.90;;;;;;5054110;28;20029;-72
2021/03/07 04:54:55;;;;;;;9.05;2.28;;;-1.10;99.90;;;;;;5076133;22;20411;-72
2021/03/07 04:59:48;;;;;;;6.47;1.98;;;-1.10;99.90;;;;;;5052758;28;20056;-72
2021/03/07 05:02:13;;;;;;;4.57;1.85;;;-1.10;99.90;;;;;;5055038;28;20491;-72
2021/03/07 05:04:39;;;;;;;5.82;1.92;;;-1.00;99.90;;;;;;5053789;28;20029;-72
2021/03/07 05:07:05;;;;;;;7.10;2.28;;;-1.00;99.90;;;;;;5053896;28;20403;-72
2021/03/07 05:09:30;;;;;;;7.75;2.25;;;-0.90;99.90;;;;;;5054175;28;20157;-72
2021/03/07 05:11:56;;;;;;;4.15;1.38;;;-0.90;99.90;;;;;;5052888;28;20025;-73
2021/03/07 05:14:21;;;;;;;3.63;1.80;;;-0.90;99.90;;;;;;5045033;28;20423;-72
2021/03/07 05:16:47;;;;;;;3.80;1.65;;;-0.80;99.90;;;;;;5063136;22;20014;-73
2021/03/07 05:19:12;;;;;;;6.72;1.90;;;0.30;99.90;;;;;;5032103;28;20033;-73
2021/03/07 05:21:38;;;;;;;6.00;2.00;;;-0.80;99.90;;;;;;5032552;28;20128;-73
2021/03/07 05:24:04;;;;;;;6.45;1.88;;;-0.70;99.90;;;;;;5033144;28;20151;-73
2021/03/07 05:26:29;;;;;;;4.40;2.03;;;-0.70;99.90;;;;;;5032320;28;20040;-74
2021/03/07 05:28:56;;;;;;;4.30;1.60;;;-0.60;99.90;;;;;;5032839;28;20037;-73
2021/03/07 05:31:22;;;;;;;4.25;1.83;;;-0.50;99.90;;;;;;5032572;28;20478;-74
2021/03/07 05:33:48;;;;;;;7.05;1.60;;;-0.50;99.90;;;;;;5034459;28;20037;-73
2021/03/07 05:36:13;;;;;;;7.50;1.67;;;-0.50;99.90;;;;;;5032074;28;20116;-73
2021/03/07 05:38:39;;;;;;;5.18;2.00;;;-0.50;99.90;;;;;;5032425;28;20402;-73
2021/03/07 05:41:05;;;;;;;8.70;1.58;;;-0.50;99.90;;;;;;5033539;28;20018;-73
2021/03/07 05:43:31;;;;;;;6.07;1.95;;;-0.40;99.90;;;;;;5032188;28;20404;-73
2021/03/07 05:45:57;;;;;;;7.35;2.13;;;-0.40;99.90;;;;;;5033217;28;20032;-73
2021/03/07 05:48:26;;;;;;;5.85;2.10;;;-0.30;99.90;;;;;;5033120;28;20515;-73
2021/03/07 05:50:51;;;;;;;5.40;2.13;;;-0.30;99.90;;;;;;5034056;28;20376;-73
2021/03/07 05:53:18;;;;;;;6.65;2.28;;;-0.30;99.90;;;;;;5031874;28;20025;-72
2021/03/07 05:55:44;;;;;;;5.55;2.00;;;-0.30;99.90;;;;;;5032936;28;20025;-72
2021/03/07 05:58:12;;;;;;;4.95;1.63;;;-0.20;99.90;;;;;;5033051;28;20036;-72
2021/03/07 06:00:38;;;;;;;5.32;2.63;;;-0.20;99.90;;;;;;5033964;28;20030;-73
2021/03/07 06:03:04;;;;;;;4.22;1.65;;;-0.10;99.90;;;;;;5138778;22;20402;-75
2021/03/07 06:05:30;;;;;;;3.33;2.08;;;-0.10;99.90;;;;;;5077735;28;20033;-73
2021/03/07 06:07:55;;;;;;;9.93;2.65;;;-0.20;99.90;;;;;;5076221;28;20025;-74
2021/03/07 06:10:24;;;;;;;8.43;2.83;;;-0.10;99.90;;;;;;5068982;22;20048;-73
2021/03/07 06:13:04;;;;;;;5.07;1.90;;;-0.10;99.90;;;;;;5035905;28;20065;-74
2021/03/07 06:15:30;;;;;;;6.82;2.38;;;0.00;99.90;;;;;;5037459;28;20033;-73
2021/03/07 06:17:55;;;;;;;6.50;2.67;;;0.00;99.90;;;;;;5071201;22;20054;-74
2021/03/07 06:20:23;;;;;;;6.10;2.45;;;0.00;99.90;;;;;;5056036;28;20020;-74
2021/03/07 06:23:00;;;;;;;4.50;2.20;;;0.00;99.90;;;;;;5056572;28;20021;-74
2021/03/07 06:25:27;;;;;;;9.02;3.17;;;0.00;99.90;;;;;;5047601;28;20068;-74
2021/03/07 06:27:53;;;;;;;4.07;2.10;;;0.10;99.90;;;;;;5036470;28;20025;-74
2021/03/07 06:30:30;;;;;;;7.25;2.17;;;0.10;99.90;;;;;;5036545;28;20060;-74
2021/03/07 06:32:58;;;;;;;7.53;2.45;;;0.20;99.90;;;;;;5036262;28;20025;-74
2021/03/07 06:35:27;;;;;;;5.43;2.20;;;0.20;99.90;;;;;;5035758;28;20056;-74
2021/03/07 06:40:31;;;;;;;7.60;2.88;;;0.30;99.90;;;;;;5034888;28;20049;-74
2021/03/07 06:42:58;;;;;;;7.72;2.88;;;0.30;99.90;;;;;;5037507;28;20017;-73
2021/03/07 06:45:34;;;;;;;6.55;2.50;;;0.40;99.90;;;;;;5018104;28;20025;-73
2021/03/07 06:48:00;;;;;;;7.85;2.88;;;0.40;99.90;;;;;;5032264;28;20065;-73
2021/03/07 06:50:25;;;;;;;7.50;1.98;;;0.60;99.90;;;;;;5007942;28;20032;-72
2021/03/07 06:52:56;;;;;;;7.07;2.90;;;0.40;99.90;;;;;;5018497;28;20395;-72
2021/03/07 06:55:24;;;;;;;6.00;2.92;;;0.40;99.90;;;;;;5036023;28;20025;-72
2021/03/07 06:57:50;;;;;;;5.43;3.95;;;0.50;99.90;;;;;;5015686;28;20108;-74
2021/03/07 07:00:17;;;;;;;7.68;2.90;;;0.50;99.90;;;;;;5035842;28;20033;-75
2021/03/07 07:03:11;;;;;;;5.55;2.67;;;0.50;99.90;;;;;;5019896;28;20045;-76
2021/03/07 07:05:45;;;;;;;8.48;3.80;;;0.60;99.90;;;;;;5017918;28;20035;-75
2021/03/07 07:08:13;;;;;;;5.47;2.70;;;0.60;99.90;;;;;;5035611;28;20029;-72
2021/03/07 07:11:06;;;;;;;7.03;3.00;;;0.60;99.90;;;;;;5018072;28;20484;-73
2021/03/07 07:13:51;;;;;;;8.20;3.03;;;0.70;99.90;;;;;;5031239;28;20045;-74
2021/03/07 07:16:17;;;;;;;7.40;2.97;;;0.70;99.90;;;;;;5067443;22;20797;-73
2021/03/07 07:18:45;;;;;;;7.25;3.22;;;0.80;99.90;;;;;;5054747;28;20435;-72
2021/03/07 07:21:16;;;;;;;10.52;3.70;;;0.90;99.90;;;;;;5054259;28;20067;-73
2021/03/07 07:23:42;;;;;;;8.15;3.53;;;0.90;99.90;;;;;;5055200;28;20024;-71
2021/03/07 07:26:08;;;;;;;5.80;3.13;;;1.00;99.90;;;;;;5055009;28;20070;-73
2021/03/07 07:28:35;;;;;;;5.95;3.20;;;1.00;99.90;;;;;;5055008;28;20104;-74
2021/03/07 07:31:20;;;;;;;10.27;3.55;;;1.00;99.90;;;;;;5055198;28;20025;-74
2021/03/07 07:33:57;;;;;;;5.90;3.22;;;1.10;99.90;;;;;;5054641;28;20025;-73
2021/03/07 07:36:34;;;;;;;7.53;3.63;;;1.20;99.90;;;;;;5033596;28;20120;-73
2021/03/07 07:39:03;;;;;;;8.05;3.53;;;1.20;99.90;;;;;;5047574;28;20106;-74
2021/03/07 07:41:37;;;;;;;6.13;3.25;;;1.30;99.90;;;;;;5054548;28;20037;-73
2021/03/07 07:44:05;;;;;;;6.53;3.85;;;1.30;99.90;;;;;;5054813;28;20039;-73
2021/03/07 07:46:31;;;;;;;9.13;3.72;;;1.50;99.90;;;;;;5054592;28;20029;-73
2021/03/07 07:48:59;;;;;;;5.90;3.40;;;1.50;99.90;;;;;;5053902;28;20060;-73
2021/03/07 07:51:29;;;;;;;9.77;3.85;;;1.60;99.90;;;;;;5054894;28;20017;-73
2021/03/07 07:53:55;;;;;;;7.80;4.28;;;1.60;99.90;;;;;;5054766;28;20025;-73
2021/03/07 07:56:37;;;;;;;5.78;3.38;;;1.70;99.90;;;;;;5055227;28;20036;-73
2021/03/07 07:59:07;;;;;;;9.45;4.90;;;1.80;99.90;;;;;;5054578;28;20434;-73
2021/03/07 08:01:50;;;;;;;11.68;4.43;;;1.90;99.90;;;;;;5053481;28;20627;-74
2021/03/07 08:04:37;;;;;;;9.77;5.05;;;2.00;99.90;;;;;;5053319;28;20364;-74
2021/03/07 08:07:04;;;;;;;9.18;4.63;;;2.10;99.90;;;;;;5054336;28;20025;-74
2021/03/07 08:09:38;;;;;;;11.38;4.78;;;2.20;99.90;;;;;;5053292;28;20071;-74
2021/03/07 08:12:45;;;;;;;7.05;3.95;;;2.40;99.90;;;;;;5054306;28;20017;-74
2021/03/07 08:15:25;;;;;;;10.05;4.05;;;2.50;99.90;;;;;;5054313;28;20017;-74
2021/03/07 08:17:57;;;;;;;8.52;4.72;;;2.60;99.90;;;;;;5054697;28;20471;-74
2021/03/07 08:20:38;;;;;;;9.32;4.78;;;2.60;99.90;;;;;;5054568;28;20017;-74
2021/03/07 08:23:05;;;;;;;9.75;4.82;;;2.70;99.90;;;;;;5053927;28;20078;-74
2021/03/07 08:25:49;;;;;;;10.13;5.28;;;2.80;99.90;;;;;;5052766;28;20021;-74
2021/03/07 08:28:27;;;;;;;8.38;5.00;;;2.90;99.90;;;;;;5052603;28;20518;-74
2021/03/07 08:31:07;;;;;;;11.90;5.30;;;2.90;99.90;;;;;;5054290;28;20162;-74
2021/03/07 08:33:35;;;;;;;9.27;4.90;;;3.00;99.90;;;;;;5052969;28;20055;-74
2021/03/07 08:36:17;;;;;;;8.32;4.75;;;3.10;99.90;;;;;;5053717;28;20391;-74
2021/03/07 08:38:51;;;;;;;9.60;5.55;;;3.10;99.90;;;;;;5054625;28;20031;-74
2021/03/07 08:41:19;;;;;;;13.25;5.43;;;3.30;99.90;;;;;;5054174;28;20025;-74
2021/03/07 08:43:48;;;;;;;12.65;5.60;;;3.40;99.90;;;;;;5053907;28;20025;-74
2021/03/07 08:46:15;;;;;;;14.60;6.18;;;3.40;99.90;;;;;;5053573;28;20021;-73
2021/03/07 08:48:44;;;;;;;10.25;5.28;;;3.50;99.90;;;;;;5040071;28;20129;-74
2021/03/07 08:51:10;;;;;;;16.63;6.00;;;3.60;99.90;;;;;;5033633;28;20557;-74
2021/03/07 08:53:38;;;;;;;11.88;5.22;;;3.70;99.90;;;;;;5033862;28;20072;-74
2021/03/07 08:56:05;;;;;;;7.88;4.97;;;3.80;99.90;;;;;;5033655;28;20400;-74
2021/03/07 08:58:30;;;;;;;10.73;5.55;;;3.90;99.90;;;;;;5033747;28;20022;-74
2021/03/07 09:00:58;;;;;;;9.98;5.47;;;4.10;99.90;;;;;;5034247;28;20091;-74
2021/03/07 09:03:25;;;;;;;13.00;6.13;;;4.20;99.90;;;;;;5048019;28;20041;-74
2021/03/07 09:05:52;;;;;;;13.75;6.63;;;4.30;99.90;;;;;;5052417;28;20032;-74
2021/03/07 09:08:22;;;;;;;12.38;6.55;;;4.50;99.90;;;;;;5052348;28;20032;-74
2021/03/07 09:10:56;;;;;;;15.18;7.25;;;4.60;99.90;;;;;;5053768;28;20099;-74
2021/03/07 09:13:25;;;;;;;14.32;7.03;;;4.80;99.90;;;;;;5048785;28;20029;-74
2021/03/07 09:15:57;;;;;;;14.38;6.78;;;5.00;99.90;;;;;;5033409;28;20037;-74
2021/03/07 09:18:35;;;;;;;15.13;6.88;;;5.10;99.90;;;;;;5033917;28;20503;-74
2021/03/07 09:21:10;;;;;;;11.27;6.53;;;5.20;99.90;;;;;;5033647;28;20029;-74
2021/03/07 09:23:41;;;;;;;14.32;6.43;;;5.20;99.90;;;;;;5033821;28;20029;-74
2021/03/07 09:26:21;;;;;;;12.63;5.95;;;5.30;99.90;;;;;;5033917;28;20091;-74
2021/03/07 09:28:52;;;;;;;15.02;6.53;;;5.30;99.90;;;;;;5033754;28;20116;-74
2021/03/07 09:31:20;;;;;;;15.00;6.60;;;5.30;99.90;;;;;;5048873;28;20437;-74
2021/03/07 09:33:51;;;;;;;13.50;6.87;;;5.40;99.90;;;;;;5033551;28;20048;-74
2021/03/07 09:36:20;;;;;;;16.88;8.32;;;5.50;99.40;;;;;;5036929;28;20021;-74
2021/03/07 09:38:55;;;;;;;16.42;8.00;;;5.50;96.50;;;;;;5049957;28;20028;-74
2021/03/07 09:41:46;;;;;;;15.63;7.65;;;5.50;97.10;;;;;;5072384;28;20021;-74
2021/03/07 09:44:22;;;;;;;15.00;6.32;;;5.60;96.40;;;;;;5051896;28;20028;-74
2021/03/07 09:46:52;;;;;;;12.05;6.15;;;5.70;96.60;;;;;;5036940;28;20029;-74
2021/03/07 09:49:23;;;;;;;13.95;6.68;;;5.80;90.10;;;;;;5054117;28;20476;-76
2021/03/07 09:51:50;;;;;;;13.38;7.15;;;5.80;91.60;;;;;;5056477;28;20498;-74
2021/03/07 09:54:17;;;;;;;11.30;6.40;;;5.90;91.50;;;;;;5057394;28;20384;-74
2021/03/07 09:56:44;;;;;;;13.48;6.78;;;5.90;91.70;;;;;;5055520;28;20108;-74
2021/03/07 09:59:18;;;;;;;11.38;6.20;;;5.90;90.00;;;;;;5056768;28;20112;-74
2021/03/07 10:01:44;;;;;;;13.82;7.13;;;6.00;89.80;;;;;;5056406;28;20065;-73
2021/03/07 10:04:36;;;;;;;10.57;5.93;;;6.00;88.50;;;;;;5056590;28;20416;-75
2021/03/07 10:07:21;;;;;;;8.65;3.85;;;6.10;90.00;;;;;;5055262;28;20376;-75
2021/03/07 10:10:08;;;;;;;6.65;4.05;;;6.30;80.40;;;;;;5056047;28;20023;-72
2021/03/07 10:12:39;;;;;;;10.60;4.38;;;6.30;75.50;;;;;;5057132;28;20029;-73
2021/03/07 10:15:06;;;;;;;7.13;3.17;;;6.40;75.10;;;;;;5056794;28;20048;-73
2021/03/07 10:17:36;;;;;;;5.28;2.78;;;6.40;71.50;;;;;;5055297;28;20104;-73
2021/03/07 10:20:10;;;;;;;3.88;2.08;;;6.50;73.50;;;;;;5056625;28;20522;-72
2021/03/07 10:22:45;;;;;;;5.85;1.98;;;6.60;73.30;;;;;;5056809;28;20022;-73
2021/03/07 10:25:42;;;;;;;4.18;1.90;;;6.70;71.10;;;;;;5056327;28;20028;-72
2021/03/07 10:28:10;;;;;;;5.20;2.25;;;6.70;70.10;;;;;;5056264;28;20025;-73
2021/03/07 10:30:40;;;;;;;2.60;1.50;;;6.80;70.50;;;;;;5056065;28;20029;-72
2021/03/07 10:33:26;;;;;;;2.50;1.30;;;6.90;70.30;;;;;;5056557;28;20025;-73
2021/03/07 10:36:10;;;;;;;3.22;1.13;;;7.00;67.70;;;;;;5056125;28;20032;-75
2021/03/07 10:38:37;;;;;;;3.20;1.45;;;7.00;65.20;;;;;;5056148;28;20021;-73
2021/03/07 10:41:35;;;;;;;5.55;1.15;;;6.80;66.00;;;;;;5055282;28;20043;-73
2021/03/07 10:44:08;;;;;;;3.47;1.00;;;6.90;66.90;;;;;;5033370;28;20033;-74
2021/03/07 10:46:38;;;;;;;1.95;0.90;;;7.10;66.30;;;;;;5055258;28;20768;-73
2021/03/07 10:49:06;;;;;;;2.70;0.90;;;7.20;66.10;;;;;;5054421;28;20036;-72
2021/03/07 10:51:31;;;;;;;4.47;1.33;;;7.40;66.60;;;;;;5070523;28;20057;-72
2021/03/07 10:53:58;;;;;;;2.38;0.90;;;7.40;65.80;;;;;;5055546;28;20063;-74
2021/03/07 10:56:28;;;;;;;3.50;0.75;;;7.50;65.60;;;;;;5055718;28;20036;-74
2021/03/07 10:58:54;;;;;;;3.50;0.63;;;7.30;63.00;;;;;;5055437;28;20025;-73
2021/03/07 11:01:20;;;;;;;2.72;1.15;;;7.30;63.10;;;;;;5060074;22;20048;-73
2021/03/07 11:03:45;;;;;;;4.72;1.08;;;7.40;64.40;;;;;;5035457;28;20017;-72
2021/03/07 11:06:11;;;;;;;1.55;0.73;;;7.60;65.00;;;;;;5017516;28;20033;-74
2021/03/07 11:08:37;;;;;;;1.55;0.50;;;7.60;64.00;;;;;;5017661;28;20035;-72
2021/03/07 11:11:04;;;;;;;2.90;0.93;;;7.60;61.20;;;;;;5017453;28;20547;-72
2021/03/07 11:13:30;;;;;;;2.05;0.57;;;7.70;63.90;;;;;;5035314;28;20025;-74
2021/03/07 11:15:55;;;;;;;3.80;1.05;;;7.70;65.00;;;;;;5034833;28;20018;-74
2021/03/07 11:18:21;;;;;;;3.38;0.55;;;7.70;62.70;;;;;;5035113;28;20100;-74
2021/03/07 11:20:47;;;;;;;1.15;0.50;;;7.70;61.50;;;;;;5034841;28;20385;-73
2021/03/07 11:23:13;;;;;;;3.45;0.85;;;7.60;62.30;;;;;;5035036;28;20017;-73
2021/03/07 11:25:38;;;;;;;2.05;0.77;;;7.60;63.50;;;;;;5034942;28;20366;-73
2021/03/07 11:28:04;;;;;;;1.13;0.40;;;7.60;61.30;;;;;;5035087;28;20032;-74
2021/03/07 11:30:30;;;;;;;3.75;0.88;;;7.50;61.00;;;;;;5017093;28;20483;-72
2021/03/07 11:32:55;;;;;;;1.25;0.30;;;7.40;61.70;;;;;;5083094;22;20109;-73
2021/03/07 11:35:21;;;;;;;3.60;0.70;;;7.30;62.50;;;;;;5074583;28;20388;-74
2021/03/07 11:37:48;;;;;;;2.00;0.70;;;7.30;61.80;;;;;;5074420;28;20016;-74
2021/03/07 11:40:16;;;;;;;3.13;0.22;;;7.20;63.70;;;;;;5073127;28;20127;-77
2021/03/07 11:42:42;;;;;;;1.73;0.43;;;7.10;64.20;;;;;;5073682;28;20021;-73
2021/03/07 11:45:08;;;;;;;1.25;0.50;;;7.10;65.50;;;;;;5073265;28;20032;-72
2021/03/07 11:47:34;;;;;;;1.15;0.63;;;7.10;63.60;;;;;;5074516;28;20036;-74
2021/03/07 11:49:59;;;;;;;1.67;0.50;;;7.00;63.30;;;;;;5072901;28;20056;-74
2021/03/07 11:52:25;;;;;;;0.80;0.17;;;7.00;64.60;;;;;;5074223;28;20078;-73
2021/03/07 11:54:50;;;;;;;1.58;0.30;;;6.90;65.90;;;;;;5063412;22;20133;-74
2021/03/07 11:57:16;;;;;;;0.90;0.30;;;6.80;65.50;;;;;;5020596;28;20010;-74
2021/03/07 11:59:44;;;;;;;1.88;0.52;;;6.80;64.90;;;;;;5011366;28;20053;-75
2021/03/07 12:02:10;;;;;;;1.52;0.30;;;6.80;65.10;;;;;;5014389;28;20048;-73
2021/03/07 12:04:35;;;;;;;1.65;0.30;;;6.70;65.70;;;;;;5009986;28;20019;-74
2021/03/07 12:07:01;;;;;;;1.27;0.40;;;6.70;66.70;;;;;;5013589;28;20045;-75
2021/03/07 12:09:27;;;;;;;2.10;0.30;;;6.70;66.90;;;;;;5012964;28;20022;-74
2021/03/07 12:11:52;;;;;;;1.77;0.10;;;6.60;66.50;;;;;;5013863;28;20520;-73
2021/03/07 12:14:19;;;;;;;0.73;0.30;;;6.60;66.50;;;;;;5013971;28;20034;-74
2021/03/07 12:16:45;;;;;;;0.85;0.38;;;6.50;67.50;;;;;;5013541;28;20510;-74
2021/03/07 12:19:10;;;;;;;3.28;0.63;;;6.40;67.50;;;;;;5011997;28;20021;-74
2021/03/07 12:21:39;;;;;;;1.80;0.50;;;6.40;68.40;;;;;;5012414;28;20060;-74
2021/03/07 12:24:08;;;;;;;3.53;0.45;;;6.30;67.90;;;;;;5010619;28;20018;-75
2021/03/07 12:26:35;;;;;;;;;;;6.20;68.70;;;;;;5011895;28;20029;-72
2021/03/07 12:29:00;;;;;;;1.10;0.35;;;6.10;69.40;;;;;;5013065;28;19906;-73
2021/03/07 12:31:29;;;;;;;3.92;0.50;;;6.00;69.20;;;;;;5013482;28;20049;-73
2021/03/07 12:33:55;;;;;;;2.03;0.70;;;5.90;69.20;;;;;;5013477;28;20017;-73
2021/03/07 12:36:21;;;;;;;2.13;0.57;;;5.90;70.40;;;;;;5013029;28;20396;-73
2021/03/07 12:38:46;;;;;;;6.07;0.47;;;5.80;71.10;;;;;;5012153;28;20025;-73
2021/03/07 12:41:12;;;;;;;4.32;1.23;;;5.80;72.60;;;;;;5013136;28;20026;-73
2021/03/07 12:43:37;;;;;;;2.75;0.50;;;5.90;73.60;;;;;;5011981;28;20499;-73
2021/03/07 12:46:03;;;;;;;4.80;1.33;;;5.90;72.30;;;;;;5011826;28;20061;-73
2021/03/07 12:48:28;;;;;;;2.53;0.63;;;5.90;70.70;;;;;;5013725;28;20033;-73
2021/03/07 12:50:54;;;;;;;2.33;0.80;;;6.00;71.00;;;;;;5013138;28;20033;-73
2021/03/07 12:53:19;;;;;;;2.65;0.70;;;5.90;71.30;;;;;;5012943;28;20061;-73
2021/03/07 12:55:45;;;;;;;4.50;0.90;;;6.00;71.60;;;;;;4994725;28;540599;-73
2021/03/07 12:58:11;;;;;;;1.70;0.63;;;6.00;71.40;;;;;;5012688;28;20025;-72
2021/03/07 13:00:36;;;;;;;3.42;0.93;;;6.00;72.40;;;;;;5013678;28;20465;-73
2021/03/07 13:03:02;;;;;;;8.45;2.10;;;6.10;72.00;;;;;;5013684;28;20057;-73
2021/03/07 13:05:27;;;;;;;5.95;1.58;;;6.20;71.50;;;;;;5012334;28;20022;-74
2021/03/07 13:07:53;;;;;;;5.45;1.58;;;6.30;70.20;;;;;;5001802;28;20037;-75
2021/03/07 13:10:19;;;;;;;4.25;1.65;;;6.30;68.90;;;;;;4996372;28;20489;-74